PWSweather.com
Personal Weather Stations
Station Observations
WESTON01
WestonSuperMareGB BS22 8RT

WestonSuperMareGB BS22 8RT

Lat: 51.351508, Lon: -2.933373

Elevation: 15

Station Type: Fine Offset WH1080

http://www.westonweather.co.uk

High Low Average
Temperature 51.7°F10.9°C 44.5°F6.9°C 48.6°F9.2°C
Dew Point 49.8°F9.9°C 37.4°F3.0°C 45.0°F7.2°C
Winds 6.4 mph 10.3 kmh Calm Calm 3.0 mph SW4.8 kmh SW
Wind Gusts 12.5 mph20.1 kmh -- 6.0 mph9.7 kmh
Humidity 93% 76% 87%
Pressure 30.27 in1025.1 mb 30.18 in1022.0 mb -
Precipitation 0.13 in3.3 mm - -
Hour Temp Dew Point Humidity Winds Wind Gusts Pressure Precip Precip Rate Daily Precip Total
12:00 AM 44.5°F6.9°C 37.4°F3.0°C 76% 4.1 mph SW6.6 kmh SW 7.7 mph12.4 kmh 30.27 in1025.1 mb 0.00 in0.0 mm 0.00 in0.0 mm 0.00 in0.0 mm
12:05 AM 44.5°F6.9°C 37.4°F3.0°C 76% 3.9 mph WSW6.3 kmh WSW 7.7 mph12.4 kmh 30.24 in1024.0 mb 0.00 in0.0 mm 0.00 in0.0 mm 0.00 in0.0 mm
12:10 AM 44.5°F6.9°C 37.4°F3.0°C 76% 3.2 mph WSW5.1 kmh WSW 4.2 mph6.8 kmh 30.24 in1024.0 mb 0.00 in0.0 mm 0.00 in0.0 mm 0.00 in0.0 mm
12:15 AM 44.5°F6.9°C 37.7°F3.2°C 77% 3.6 mph WSW5.8 kmh WSW 6.2 mph10.0 kmh 30.24 in1024.0 mb 0.00 in0.0 mm 0.00 in0.0 mm 0.00 in0.0 mm
12:20 AM 44.7°F7.1°C 37.9°F3.3°C 77% 3.4 mph SW5.5 kmh SW 6.2 mph10.0 kmh 30.24 in1024.0 mb 0.00 in0.0 mm 0.00 in0.0 mm 0.00 in0.0 mm
12:25 AM 44.9°F7.2°C 38.1°F3.4°C 77% 2.6 mph SW4.2 kmh SW 3.9 mph6.3 kmh 30.24 in1024.0 mb 0.00 in0.0 mm 0.00 in0.0 mm 0.00 in0.0 mm
12:30 AM 44.9°F7.2°C 38.1°F3.4°C 77% 1.9 mph SW3.1 kmh SW 5.1 mph8.2 kmh 30.24 in1024.0 mb 0.00 in0.0 mm 0.00 in0.0 mm 0.00 in0.0 mm
12:35 AM 45.0°F7.2°C 38.3°F3.5°C 77% 2.1 mph SW3.4 kmh SW 5.1 mph8.2 kmh 30.24 in1024.0 mb 0.00 in0.0 mm 0.00 in0.0 mm 0.00 in0.0 mm
12:40 AM 45.0°F7.2°C 38.3°F3.5°C 77% 2.9 mph SSW4.7 kmh SSW 7.1 mph11.4 kmh 30.24 in1024.0 mb 0.00 in0.0 mm 0.00 in0.0 mm 0.00 in0.0 mm
12:45 AM 45.2°F7.3°C 38.1°F3.4°C 76% 2.9 mph S4.7 kmh S 7.1 mph11.4 kmh 30.24 in1024.0 mb 0.00 in0.0 mm 0.00 in0.0 mm 0.00 in0.0 mm
12:50 AM 45.2°F7.3°C 38.1°F3.4°C 76% 3.0 mph SW4.8 kmh SW 4.8 mph7.7 kmh 30.24 in1024.0 mb 0.00 in0.0 mm 0.00 in0.0 mm 0.00 in0.0 mm
12:55 AM 45.2°F7.3°C 38.1°F3.4°C 76% 3.0 mph SW4.8 kmh SW 4.8 mph7.7 kmh 30.24 in1024.0 mb 0.00 in0.0 mm 0.00 in0.0 mm 0.00 in0.0 mm
01:00 AM 45.2°F7.3°C 38.1°F3.4°C 76% 3.0 mph WSW4.8 kmh WSW 5.7 mph9.2 kmh 30.24 in1024.0 mb 0.00 in0.0 mm 0.00 in0.0 mm 0.00 in0.0 mm
01:05 AM 45.2°F7.3°C 38.1°F3.4°C 76% 3.0 mph WSW4.8 kmh WSW 6.5 mph10.5 kmh 30.24 in1024.0 mb 0.00 in0.0 mm 0.00 in0.0 mm 0.00 in0.0 mm
01:10 AM 45.4°F7.4°C 38.3°F3.5°C 76% 2.5 mph SSW4.0 kmh SSW 6.5 mph10.5 kmh 30.24 in1024.0 mb 0.00 in0.0 mm 0.00 in0.0 mm 0.00 in0.0 mm
01:15 AM 45.4°F7.4°C 38.3°F3.5°C 76% 2.4 mph S3.9 kmh S 5.7 mph9.2 kmh 30.24 in1024.0 mb 0.00 in0.0 mm 0.00 in0.0 mm 0.00 in0.0 mm
01:20 AM 45.4°F7.4°C 38.3°F3.5°C 76% 2.6 mph S4.2 kmh S 5.7 mph9.2 kmh 30.24 in1024.0 mb 0.00 in0.0 mm 0.00 in0.0 mm 0.00 in0.0 mm
01:25 AM 45.2°F7.3°C 38.1°F3.4°C 76% 3.2 mph S5.1 kmh S 5.7 mph9.2 kmh 30.24 in1024.0 mb 0.00 in0.0 mm 0.00 in0.0 mm 0.00 in0.0 mm
01:30 AM 45.2°F7.3°C 38.1°F3.4°C 76% 3.8 mph SSW6.1 kmh SSW 5.7 mph9.2 kmh 30.24 in1024.0 mb 0.00 in0.0 mm 0.00 in0.0 mm 0.00 in0.0 mm
01:35 AM 45.2°F7.3°C 38.1°F3.4°C 76% 2.9 mph S4.7 kmh S 5.1 mph8.2 kmh 30.24 in1024.0 mb 0.00 in0.0 mm 0.00 in0.0 mm 0.00 in0.0 mm
01:40 AM 45.2°F7.3°C 38.4°F3.6°C 77% 2.4 mph SSW3.9 kmh SSW 5.1 mph8.2 kmh 30.24 in1024.0 mb 0.00 in0.0 mm 0.00 in0.0 mm 0.00 in0.0 mm
01:45 AM 45.2°F7.3°C 38.4°F3.6°C 77% 3.2 mph SW5.1 kmh SW 5.7 mph9.2 kmh 30.24 in1024.0 mb 0.00 in0.0 mm 0.00 in0.0 mm 0.00 in0.0 mm
01:50 AM 45.4°F7.4°C 38.6°F3.7°C 77% 3.9 mph SSW6.3 kmh SSW 5.7 mph9.2 kmh 30.24 in1024.0 mb 0.00 in0.0 mm 0.00 in0.0 mm 0.00 in0.0 mm
01:55 AM 45.4°F7.4°C 38.6°F3.7°C 77% 3.6 mph SSW5.8 kmh SSW 5.4 mph8.7 kmh 30.24 in1024.0 mb 0.00 in0.0 mm 0.00 in0.0 mm 0.00 in0.0 mm
02:00 AM 45.6°F7.6°C 38.8°F3.8°C 77% 3.5 mph SW5.6 kmh SW 5.4 mph8.7 kmh 30.24 in1024.0 mb 0.00 in0.0 mm 0.00 in0.0 mm 0.00 in0.0 mm
02:05 AM 45.6°F7.6°C 38.8°F3.8°C 77% 3.6 mph SW5.8 kmh SW 5.1 mph8.2 kmh 30.24 in1024.0 mb 0.00 in0.0 mm 0.00 in0.0 mm 0.00 in0.0 mm
02:10 AM 45.6°F7.6°C 38.8°F3.8°C 77% 3.5 mph SSW5.6 kmh SSW 5.7 mph9.2 kmh 30.24 in1024.0 mb 0.00 in0.0 mm 0.00 in0.0 mm 0.00 in0.0 mm
02:15 AM 45.6°F7.6°C 38.8°F3.8°C 77% 3.0 mph SSW4.8 kmh SSW 5.7 mph9.2 kmh 30.24 in1024.0 mb 0.00 in0.0 mm 0.00 in0.0 mm 0.00 in0.0 mm
02:20 AM 45.8°F7.7°C 39.0°F3.9°C 77% 3.2 mph SSW5.1 kmh SSW 6.2 mph10.0 kmh 30.24 in1024.0 mb 0.00 in0.0 mm 0.00 in0.0 mm 0.00 in0.0 mm
02:25 AM 45.8°F7.7°C 39.3°F4.1°C 78% 3.7 mph S6.0 kmh S 7.7 mph12.4 kmh 30.24 in1024.0 mb 0.00 in0.0 mm 0.00 in0.0 mm 0.00 in0.0 mm
02:30 AM 45.8°F7.7°C 39.0°F3.9°C 77% 4.1 mph SW6.6 kmh SW 7.7 mph12.4 kmh 30.24 in1024.0 mb 0.00 in0.0 mm 0.00 in0.0 mm 0.00 in0.0 mm
02:35 AM 45.8°F7.7°C 39.0°F3.9°C 77% 4.1 mph SW6.6 kmh SW 7.7 mph12.4 kmh 30.24 in1024.0 mb 0.00 in0.0 mm 0.00 in0.0 mm 0.00 in0.0 mm
02:40 AM 45.8°F7.7°C 39.3°F4.1°C 78% 3.5 mph SW5.6 kmh SW 5.1 mph8.2 kmh 30.24 in1024.0 mb 0.00 in0.0 mm 0.00 in0.0 mm 0.00 in0.0 mm
02:45 AM 45.8°F7.7°C 39.3°F4.1°C 78% 2.8 mph SW4.5 kmh SW 5.1 mph8.2 kmh 30.24 in1024.0 mb 0.00 in0.0 mm 0.00 in0.0 mm 0.00 in0.0 mm
02:50 AM 45.8°F7.7°C 39.3°F4.1°C 78% 3.1 mph SSW5.0 kmh SSW 5.1 mph8.2 kmh 30.21 in1023.0 mb 0.00 in0.0 mm 0.00 in0.0 mm 0.00 in0.0 mm
02:55 AM 46.0°F7.8°C 39.8°F4.3°C 79% 3.3 mph SSW5.3 kmh SSW 4.8 mph7.7 kmh 30.21 in1023.0 mb 0.00 in0.0 mm 0.00 in0.0 mm 0.00 in0.0 mm
03:00 AM 46.0°F7.8°C 39.8°F4.3°C 79% 3.3 mph SW5.3 kmh SW 6.5 mph10.5 kmh 30.21 in1023.0 mb 0.00 in0.0 mm 0.00 in0.0 mm 0.00 in0.0 mm
03:05 AM 46.1°F7.8°C 40.0°F4.4°C 79% 3.5 mph SW5.6 kmh SW 6.5 mph10.5 kmh 30.21 in1023.0 mb 0.00 in0.0 mm 0.00 in0.0 mm 0.00 in0.0 mm
03:10 AM 46.1°F7.8°C 40.0°F4.4°C 79% 3.4 mph SSW5.5 kmh SSW 5.4 mph8.7 kmh 30.21 in1023.0 mb 0.00 in0.0 mm 0.00 in0.0 mm 0.00 in0.0 mm
03:15 AM 46.1°F7.8°C 40.0°F4.4°C 79% 3.5 mph SSW5.6 kmh SSW 5.4 mph8.7 kmh 30.21 in1023.0 mb 0.00 in0.0 mm 0.00 in0.0 mm 0.00 in0.0 mm
03:20 AM 46.0°F7.8°C 39.8°F4.3°C 79% 3.3 mph SSW5.3 kmh SSW 5.4 mph8.7 kmh 30.21 in1023.0 mb 0.00 in0.0 mm 0.00 in0.0 mm 0.00 in0.0 mm
03:25 AM 46.0°F7.8°C 40.1°F4.5°C 80% 4.7 mph SSW7.6 kmh SSW 7.7 mph12.4 kmh 30.21 in1023.0 mb 0.00 in0.0 mm 0.00 in0.0 mm 0.00 in0.0 mm
03:30 AM 46.0°F7.8°C 40.1°F4.5°C 80% 4.6 mph SSW7.4 kmh SSW 7.7 mph12.4 kmh 30.21 in1023.0 mb 0.00 in0.0 mm 0.00 in0.0 mm 0.00 in0.0 mm
03:35 AM 46.0°F7.8°C 40.1°F4.5°C 80% 3.9 mph SSW6.3 kmh SSW 5.4 mph8.7 kmh 30.21 in1023.0 mb 0.00 in0.0 mm 0.00 in0.0 mm 0.00 in0.0 mm
03:40 AM 45.8°F7.7°C 40.0°F4.4°C 80% 3.6 mph SSW5.8 kmh SSW 5.4 mph8.7 kmh 30.21 in1023.0 mb 0.00 in0.0 mm 0.00 in0.0 mm 0.00 in0.0 mm
03:45 AM 45.8°F7.7°C 40.0°F4.4°C 80% 2.9 mph SSW4.7 kmh SSW 5.4 mph8.7 kmh 30.21 in1023.0 mb 0.00 in0.0 mm 0.00 in0.0 mm 0.00 in0.0 mm
03:50 AM 45.8°F7.7°C 40.0°F4.4°C 80% 3.2 mph SSW5.1 kmh SSW 5.4 mph8.7 kmh 30.21 in1023.0 mb 0.00 in0.0 mm 0.00 in0.0 mm 0.00 in0.0 mm
03:55 AM 45.8°F7.7°C 40.0°F4.4°C 80% 3.8 mph SSW6.1 kmh SSW 6.5 mph10.5 kmh 30.21 in1023.0 mb 0.00 in0.0 mm 0.00 in0.0 mm 0.00 in0.0 mm
04:00 AM 45.6°F7.6°C 40.1°F4.5°C 81% 4.3 mph SW6.9 kmh SW 6.5 mph10.5 kmh 30.21 in1023.0 mb 0.00 in0.0 mm 0.00 in0.0 mm 0.00 in0.0 mm
04:05 AM 45.6°F7.6°C 40.1°F4.5°C 81% 3.8 mph SSW6.1 kmh SSW 6.5 mph10.5 kmh 30.21 in1023.0 mb 0.00 in0.0 mm 0.00 in0.0 mm 0.00 in0.0 mm
04:10 AM 45.8°F7.7°C 40.3°F4.6°C 81% 3.4 mph SSW5.5 kmh SSW 5.4 mph8.7 kmh 30.21 in1023.0 mb 0.00 in0.0 mm 0.00 in0.0 mm 0.00 in0.0 mm
04:15 AM 45.8°F7.7°C 40.3°F4.6°C 81% 3.2 mph SW5.1 kmh SW 8.6 mph13.8 kmh 30.21 in1023.0 mb 0.00 in0.0 mm 0.00 in0.0 mm 0.00 in0.0 mm
04:20 AM 45.8°F7.7°C 40.3°F4.6°C 81% 4.3 mph SSW6.9 kmh SSW 8.6 mph13.8 kmh 30.21 in1023.0 mb 0.00 in0.0 mm 0.00 in0.0 mm 0.00 in0.0 mm
04:25 AM 45.8°F7.7°C 40.3°F4.6°C 81% 4.1 mph SSW6.6 kmh SSW 7.4 mph11.9 kmh 30.21 in1023.0 mb 0.00 in0.0 mm 0.00 in0.0 mm 0.00 in0.0 mm
04:30 AM 46.0°F7.8°C 40.4°F4.7°C 81% 3.0 mph SSW4.8 kmh SSW 5.7 mph9.2 kmh 30.21 in1023.0 mb 0.00 in0.0 mm 0.00 in0.0 mm 0.00 in0.0 mm
04:35 AM 46.0°F7.8°C 40.4°F4.7°C 81% 4.1 mph WSW6.6 kmh WSW 7.1 mph11.4 kmh 30.21 in1023.0 mb 0.00 in0.0 mm 0.00 in0.0 mm 0.00 in0.0 mm
04:40 AM 46.0°F7.8°C 40.4°F4.7°C 81% 4.5 mph WSW7.2 kmh WSW 7.1 mph11.4 kmh 30.21 in1023.0 mb 0.00 in0.0 mm 0.00 in0.0 mm 0.00 in0.0 mm
04:45 AM 46.0°F7.8°C 40.4°F4.7°C 81% 3.7 mph W6.0 kmh W 6.2 mph10.0 kmh 30.21 in1023.0 mb 0.00 in0.0 mm 0.00 in0.0 mm 0.00 in0.0 mm
04:50 AM 46.0°F7.8°C 40.4°F4.7°C 81% 3.8 mph W6.1 kmh W 5.7 mph9.2 kmh 30.21 in1023.0 mb 0.00 in0.0 mm 0.00 in0.0 mm 0.00 in0.0 mm
04:55 AM 46.0°F7.8°C 40.4°F4.7°C 81% 3.7 mph W6.0 kmh W 5.4 mph8.7 kmh 30.21 in1023.0 mb 0.00 in0.0 mm 0.00 in0.0 mm 0.00 in0.0 mm
05:00 AM 46.0°F7.8°C 40.8°F4.9°C 82% 3.8 mph WSW6.1 kmh WSW 5.4 mph8.7 kmh 30.21 in1023.0 mb 0.00 in0.0 mm 0.00 in0.0 mm 0.00 in0.0 mm
05:05 AM 46.0°F7.8°C 40.8°F4.9°C 82% 4.5 mph WSW7.2 kmh WSW 8.0 mph12.9 kmh 30.18 in1022.0 mb 0.00 in0.0 mm 0.00 in0.0 mm 0.00 in0.0 mm
05:10 AM 46.1°F7.8°C 40.9°F4.9°C 82% 5.0 mph WSW8.0 kmh WSW 8.0 mph12.9 kmh 30.18 in1022.0 mb 0.00 in0.0 mm 0.00 in0.0 mm 0.00 in0.0 mm
05:15 AM 46.1°F7.8°C 40.9°F4.9°C 82% 3.8 mph SW6.1 kmh SW 6.2 mph10.0 kmh 30.18 in1022.0 mb 0.00 in0.0 mm 0.00 in0.0 mm 0.00 in0.0 mm
05:20 AM 46.1°F7.8°C 41.3°F5.2°C 83% 4.0 mph SSW6.4 kmh SSW 7.4 mph11.9 kmh 30.21 in1023.0 mb 0.00 in0.0 mm 0.00 in0.0 mm 0.00 in0.0 mm
05:25 AM 46.1°F7.8°C 41.3°F5.2°C 83% 4.6 mph SSW7.4 kmh SSW 7.4 mph11.9 kmh 30.21 in1023.0 mb 0.00 in0.0 mm 0.00 in0.0 mm 0.00 in0.0 mm
05:30 AM 46.1°F7.8°C 41.3°F5.2°C 83% 3.5 mph SSW5.6 kmh SSW 5.7 mph9.2 kmh 30.21 in1023.0 mb 0.00 in0.0 mm 0.00 in0.0 mm 0.00 in0.0 mm
05:35 AM 46.1°F7.8°C 41.3°F5.2°C 83% 2.9 mph S4.7 kmh S 4.5 mph7.2 kmh 30.18 in1022.0 mb 0.00 in0.0 mm 0.00 in0.0 mm 0.00 in0.0 mm
05:40 AM 46.1°F7.8°C 41.3°F5.2°C 83% 3.0 mph SW4.8 kmh SW 4.5 mph7.2 kmh 30.18 in1022.0 mb 0.00 in0.0 mm 0.00 in0.0 mm 0.00 in0.0 mm
05:45 AM 46.1°F7.8°C 41.3°F5.2°C 83% 3.1 mph SW5.0 kmh SW 8.0 mph12.9 kmh 30.18 in1022.0 mb 0.00 in0.0 mm 0.00 in0.0 mm 0.00 in0.0 mm
05:50 AM 46.1°F7.8°C 41.3°F5.2°C 83% 3.6 mph SSW5.8 kmh SSW 8.0 mph12.9 kmh 30.21 in1023.0 mb 0.00 in0.0 mm 0.00 in0.0 mm 0.00 in0.0 mm
05:55 AM 46.1°F7.8°C 41.3°F5.2°C 83% 3.5 mph SSW5.6 kmh SSW 5.4 mph8.7 kmh 30.21 in1023.0 mb 0.00 in0.0 mm 0.00 in0.0 mm 0.00 in0.0 mm
06:00 AM 46.1°F7.8°C 41.3°F5.2°C 83% 3.3 mph SSW5.3 kmh SSW 5.4 mph8.7 kmh 30.21 in1023.0 mb 0.00 in0.0 mm 0.00 in0.0 mm 0.00 in0.0 mm
06:05 AM 46.1°F7.8°C 41.3°F5.2°C 83% 2.2 mph SSW3.5 kmh SSW 3.9 mph6.3 kmh 30.21 in1023.0 mb 0.00 in0.0 mm 0.00 in0.0 mm 0.00 in0.0 mm
06:10 AM 46.1°F7.8°C 41.3°F5.2°C 83% 1.8 mph SW2.9 kmh SW 3.9 mph6.3 kmh 30.21 in1023.0 mb 0.00 in0.0 mm 0.00 in0.0 mm 0.00 in0.0 mm
06:15 AM 46.3°F7.9°C 41.4°F5.2°C 83% 1.9 mph SW3.1 kmh SW 3.9 mph6.3 kmh 30.21 in1023.0 mb 0.00 in0.0 mm 0.00 in0.0 mm 0.00 in0.0 mm
06:20 AM 46.3°F7.9°C 41.4°F5.2°C 83% 1.8 mph SSW2.9 kmh SSW 3.6 mph5.8 kmh 30.18 in1022.0 mb 0.00 in0.0 mm 0.00 in0.0 mm 0.00 in0.0 mm
06:25 AM 46.5°F8.1°C 41.6°F5.3°C 83% 2.0 mph SSW3.2 kmh SSW 5.4 mph8.7 kmh 30.18 in1022.0 mb 0.00 in0.0 mm 0.00 in0.0 mm 0.00 in0.0 mm
06:30 AM 46.5°F8.1°C 41.6°F5.3°C 83% 2.5 mph SSW4.0 kmh SSW 5.4 mph8.7 kmh 30.18 in1022.0 mb 0.00 in0.0 mm 0.00 in0.0 mm 0.00 in0.0 mm
06:35 AM 46.7°F8.2°C 41.8°F5.4°C 83% 2.6 mph SW4.2 kmh SW 5.4 mph8.7 kmh 30.21 in1023.0 mb 0.00 in0.0 mm 0.00 in0.0 mm 0.00 in0.0 mm
06:40 AM 46.7°F8.2°C 41.8°F5.4°C 83% 2.5 mph SW4.0 kmh SW 4.8 mph7.7 kmh 30.21 in1023.0 mb 0.00 in0.0 mm 0.00 in0.0 mm 0.00 in0.0 mm
06:45 AM 46.5°F8.1°C 41.6°F5.3°C 83% 3.2 mph SW5.1 kmh SW 7.1 mph11.4 kmh 30.21 in1023.0 mb 0.00 in0.0 mm 0.00 in0.0 mm 0.00 in0.0 mm
06:50 AM 46.5°F8.1°C 41.6°F5.3°C 83% 3.4 mph WSW5.5 kmh WSW 7.1 mph11.4 kmh 30.21 in1023.0 mb 0.00 in0.0 mm 0.00 in0.0 mm 0.00 in0.0 mm
06:55 AM 46.5°F8.1°C 41.6°F5.3°C 83% 3.1 mph W5.0 kmh W 7.1 mph11.4 kmh 30.21 in1023.0 mb 0.00 in0.0 mm 0.00 in0.0 mm 0.00 in0.0 mm
07:00 AM 46.3°F7.9°C 41.7°F5.4°C 84% 2.3 mph W3.7 kmh W 4.2 mph6.8 kmh 30.21 in1023.0 mb 0.00 in0.0 mm 0.00 in0.0 mm 0.00 in0.0 mm
07:05 AM 46.3°F7.9°C 41.7°F5.4°C 84% 1.4 mph WSW2.3 kmh WSW 3.6 mph5.8 kmh 30.21 in1023.0 mb 0.00 in0.0 mm 0.00 in0.0 mm 0.00 in0.0 mm
07:10 AM 46.3°F7.9°C 41.7°F5.4°C 84% 1.4 mph W2.3 kmh W 3.6 mph5.8 kmh 30.21 in1023.0 mb 0.00 in0.0 mm 0.00 in0.0 mm 0.00 in0.0 mm
07:15 AM 46.3°F7.9°C 41.7°F5.4°C 84% 2.8 mph W4.5 kmh W 4.5 mph7.2 kmh 30.21 in1023.0 mb 0.00 in0.0 mm 0.00 in0.0 mm 0.00 in0.0 mm
07:20 AM 46.3°F7.9°C 41.7°F5.4°C 84% 3.3 mph WSW5.3 kmh WSW 4.5 mph7.2 kmh 30.21 in1023.0 mb 0.00 in0.0 mm 0.00 in0.0 mm 0.00 in0.0 mm
07:25 AM 46.3°F7.9°C 41.7°F5.4°C 84% 3.5 mph WSW5.6 kmh WSW 4.5 mph7.2 kmh 30.21 in1023.0 mb 0.00 in0.0 mm 0.00 in0.0 mm 0.00 in0.0 mm
07:30 AM 46.3°F7.9°C 41.7°F5.4°C 84% 1.6 mph WSW2.6 kmh WSW 4.2 mph6.8 kmh 30.21 in1023.0 mb 0.00 in0.0 mm 0.00 in0.0 mm 0.00 in0.0 mm
07:35 AM 46.3°F7.9°C 41.7°F5.4°C 84% 0.5 mph SW0.8 kmh SW 3.0 mph4.8 kmh 30.21 in1023.0 mb 0.00 in0.0 mm 0.00 in0.0 mm 0.00 in0.0 mm
07:40 AM 46.3°F7.9°C 42.0°F5.6°C 85% 0.3 mph SW0.5 kmh SW 3.0 mph4.8 kmh 30.21 in1023.0 mb 0.00 in0.0 mm 0.00 in0.0 mm 0.00 in0.0 mm
07:45 AM 46.3°F7.9°C 42.0°F5.6°C 85% Calm Calm -- 30.21 in1023.0 mb 0.00 in0.0 mm 0.00 in0.0 mm 0.00 in0.0 mm
07:50 AM 46.3°F7.9°C 42.0°F5.6°C 85% 0.1 mph SW0.2 kmh SW 1.8 mph2.9 kmh 30.21 in1023.0 mb 0.00 in0.0 mm 0.00 in0.0 mm 0.00 in0.0 mm
07:55 AM 46.3°F7.9°C 42.0°F5.6°C 85% 0.6 mph WSW1.0 kmh WSW 2.7 mph4.3 kmh 30.21 in1023.0 mb 0.00 in0.0 mm 0.00 in0.0 mm 0.00 in0.0 mm
08:00 AM 46.3°F7.9°C 42.0°F5.6°C 85% 1.4 mph W2.3 kmh W 3.0 mph4.8 kmh 30.21 in1023.0 mb 0.00 in0.0 mm 0.00 in0.0 mm 0.00 in0.0 mm
08:05 AM 46.3°F7.9°C 42.0°F5.6°C 85% 1.0 mph W1.6 kmh W 3.0 mph4.8 kmh 30.21 in1023.0 mb 0.00 in0.0 mm 0.00 in0.0 mm 0.00 in0.0 mm
08:10 AM 46.3°F7.9°C 42.4°F5.8°C 86% 0.3 mph WNW0.5 kmh WNW 1.8 mph2.9 kmh 30.21 in1023.0 mb 0.00 in0.0 mm 0.00 in0.0 mm 0.00 in0.0 mm
08:15 AM 46.3°F7.9°C 42.4°F5.8°C 86% 0.5 mph NW0.8 kmh NW 2.7 mph4.3 kmh 30.21 in1023.0 mb 0.00 in0.0 mm 0.00 in0.0 mm 0.00 in0.0 mm
08:20 AM 46.3°F7.9°C 42.4°F5.8°C 86% 0.2 mph N0.3 kmh N 2.7 mph4.3 kmh 30.21 in1023.0 mb 0.00 in0.0 mm 0.00 in0.0 mm 0.00 in0.0 mm
08:25 AM 46.5°F8.1°C 42.5°F5.8°C 86% 1.2 mph NW1.9 kmh NW 3.9 mph6.3 kmh 30.21 in1023.0 mb 0.00 in0.0 mm 0.00 in0.0 mm 0.00 in0.0 mm
08:30 AM 46.5°F8.1°C 42.5°F5.8°C 86% 1.9 mph NW3.1 kmh NW 3.9 mph6.3 kmh 30.21 in1023.0 mb 0.00 in0.0 mm 0.00 in0.0 mm 0.00 in0.0 mm
08:35 AM 46.7°F8.2°C 42.7°F5.9°C 86% 1.8 mph WNW2.9 kmh WNW 3.6 mph5.8 kmh 30.21 in1023.0 mb 0.00 in0.0 mm 0.00 in0.0 mm 0.00 in0.0 mm
08:40 AM 46.7°F8.2°C 42.7°F5.9°C 86% 1.8 mph W2.9 kmh W 3.3 mph5.3 kmh 30.21 in1023.0 mb 0.00 in0.0 mm 0.00 in0.0 mm 0.00 in0.0 mm
08:45 AM 46.8°F8.2°C 43.2°F6.2°C 87% 1.6 mph W2.6 kmh W 3.3 mph5.3 kmh 30.21 in1023.0 mb 0.00 in0.0 mm 0.00 in0.0 mm 0.00 in0.0 mm
08:50 AM 47.0°F8.3°C 43.1°F6.2°C 86% 1.5 mph WSW2.4 kmh WSW 3.3 mph5.3 kmh 30.21 in1023.0 mb 0.00 in0.0 mm 0.00 in0.0 mm 0.00 in0.0 mm
08:55 AM 47.0°F8.3°C 43.4°F6.3°C 87% 1.6 mph WSW2.6 kmh WSW 3.3 mph5.3 kmh 30.21 in1023.0 mb 0.00 in0.0 mm 0.00 in0.0 mm 0.00 in0.0 mm
09:00 AM 47.2°F8.4°C 43.5°F6.4°C 87% 1.5 mph WSW2.4 kmh WSW 3.3 mph5.3 kmh 30.21 in1023.0 mb 0.00 in0.0 mm 0.00 in0.0 mm 0.00 in0.0 mm
09:05 AM 47.4°F8.6°C 43.7°F6.5°C 87% 1.2 mph W1.9 kmh W 4.2 mph6.8 kmh 30.21 in1023.0 mb 0.00 in0.0 mm 0.00 in0.0 mm 0.00 in0.0 mm
09:10 AM 47.6°F8.7°C 44.2°F6.8°C 88% 1.3 mph WSW2.1 kmh WSW 4.2 mph6.8 kmh 30.21 in1023.0 mb 0.00 in0.0 mm 0.00 in0.0 mm 0.00 in0.0 mm
09:15 AM 47.8°F8.8°C 44.4°F6.9°C 88% 1.4 mph SW2.3 kmh SW 4.2 mph6.8 kmh 30.21 in1023.0 mb 0.00 in0.0 mm 0.00 in0.0 mm 0.00 in0.0 mm
09:20 AM 47.9°F8.8°C 44.5°F6.9°C 88% 1.4 mph SW2.3 kmh SW 3.6 mph5.8 kmh 30.21 in1023.0 mb 0.00 in0.0 mm 0.00 in0.0 mm 0.00 in0.0 mm
09:25 AM 47.9°F8.8°C 44.5°F6.9°C 88% 2.1 mph S3.4 kmh S 5.1 mph8.2 kmh 30.21 in1023.0 mb 0.00 in0.0 mm 0.00 in0.0 mm 0.00 in0.0 mm
09:30 AM 48.1°F8.9°C 44.7°F7.1°C 88% 3.2 mph SW5.1 kmh SW 6.2 mph10.0 kmh 30.21 in1023.0 mb 0.05 in1.3 mm 0.60 in15.2 mm 0.05 in1.3 mm
09:35 AM 48.1°F8.9°C 44.7°F7.1°C 88% 2.8 mph SW4.5 kmh SW 6.2 mph10.0 kmh 30.21 in1023.0 mb 0.05 in1.3 mm 0.00 in0.0 mm 0.05 in1.3 mm
09:40 AM 48.1°F8.9°C 44.7°F7.1°C 88% 2.2 mph WSW3.5 kmh WSW 3.9 mph6.3 kmh 30.21 in1023.0 mb 0.05 in1.3 mm 0.00 in0.0 mm 0.05 in1.3 mm
09:45 AM 49.0°F9.4°C 45.9°F7.7°C 89% 4.1 mph WSW6.6 kmh WSW 7.4 mph11.9 kmh 30.21 in1023.0 mb 0.05 in1.3 mm 0.00 in0.0 mm 0.05 in1.3 mm
09:50 AM 49.5°F9.7°C 46.4°F8.0°C 89% 5.8 mph WSW9.3 kmh WSW 7.7 mph12.4 kmh 30.21 in1023.0 mb 0.05 in1.3 mm 0.00 in0.0 mm 0.05 in1.3 mm
09:55 AM 49.7°F9.8°C 46.9°F8.3°C 90% 5.7 mph WSW9.2 kmh WSW 7.7 mph12.4 kmh 30.21 in1023.0 mb 0.05 in1.3 mm 0.00 in0.0 mm 0.05 in1.3 mm
10:00 AM 49.9°F9.9°C 47.1°F8.4°C 90% 4.7 mph WSW7.6 kmh WSW 7.1 mph11.4 kmh 30.21 in1023.0 mb 0.05 in1.3 mm 0.00 in0.0 mm 0.05 in1.3 mm
10:05 AM 49.9°F9.9°C 47.1°F8.4°C 90% 3.8 mph WSW6.1 kmh WSW 8.3 mph13.4 kmh 30.21 in1023.0 mb 0.05 in1.3 mm 0.00 in0.0 mm 0.05 in1.3 mm
10:10 AM 50.3°F10.2°C 47.4°F8.6°C 90% 6.0 mph WSW9.7 kmh WSW 12.5 mph20.1 kmh 30.21 in1023.0 mb 0.05 in1.3 mm 0.00 in0.0 mm 0.05 in1.3 mm
10:15 AM 50.3°F10.2°C 47.4°F8.6°C 90% 6.2 mph WSW10.0 kmh WSW 12.5 mph20.1 kmh 30.21 in1023.0 mb 0.05 in1.3 mm 0.00 in0.0 mm 0.05 in1.3 mm
10:20 AM 50.1°F10.1°C 47.3°F8.5°C 90% 4.4 mph WSW7.1 kmh WSW 12.5 mph20.1 kmh 30.21 in1023.0 mb 0.05 in1.3 mm 0.00 in0.0 mm 0.05 in1.3 mm
10:25 AM 49.7°F9.8°C 46.9°F8.3°C 90% 3.7 mph SSW6.0 kmh SSW 4.8 mph7.7 kmh 30.21 in1023.0 mb 0.05 in1.3 mm 0.00 in0.0 mm 0.05 in1.3 mm
10:30 AM 49.4°F9.7°C 46.3°F7.9°C 89% 3.9 mph SSW6.3 kmh SSW 4.8 mph7.7 kmh 30.21 in1023.0 mb 0.00 in0.0 mm 0.00 in0.0 mm 0.05 in1.3 mm
10:35 AM 49.4°F9.7°C 46.3°F7.9°C 89% 2.4 mph SW3.9 kmh SW 4.8 mph7.7 kmh 30.21 in1023.0 mb 0.00 in0.0 mm 0.00 in0.0 mm 0.05 in1.3 mm
10:40 AM 49.2°F9.6°C 46.1°F7.8°C 89% 2.1 mph SSW3.4 kmh SSW 4.5 mph7.2 kmh 30.21 in1023.0 mb 0.00 in0.0 mm 0.00 in0.0 mm 0.05 in1.3 mm
10:45 AM 49.2°F9.6°C 46.1°F7.8°C 89% 2.9 mph SSW4.7 kmh SSW 4.5 mph7.2 kmh 30.21 in1023.0 mb 0.00 in0.0 mm 0.00 in0.0 mm 0.05 in1.3 mm
10:50 AM 49.2°F9.6°C 46.4°F8.0°C 90% 3.1 mph SSW5.0 kmh SSW 4.5 mph7.2 kmh 30.21 in1023.0 mb 0.00 in0.0 mm 0.00 in0.0 mm 0.05 in1.3 mm
10:55 AM 49.0°F9.4°C 45.9°F7.7°C 89% 3.6 mph SW5.8 kmh SW 5.1 mph8.2 kmh 30.21 in1023.0 mb 0.00 in0.0 mm 0.00 in0.0 mm 0.05 in1.3 mm
11:00 AM 49.0°F9.4°C 45.9°F7.7°C 89% 3.5 mph WSW5.6 kmh WSW 5.4 mph8.7 kmh 30.21 in1023.0 mb 0.00 in0.0 mm 0.00 in0.0 mm 0.05 in1.3 mm
11:05 AM 49.0°F9.4°C 45.9°F7.7°C 89% 3.7 mph SW6.0 kmh SW 5.4 mph8.7 kmh 30.21 in1023.0 mb 0.00 in0.0 mm 0.00 in0.0 mm 0.05 in1.3 mm
11:10 AM 49.0°F9.4°C 45.9°F7.7°C 89% 4.3 mph W6.9 kmh W 6.2 mph10.0 kmh 30.21 in1023.0 mb 0.00 in0.0 mm 0.00 in0.0 mm 0.05 in1.3 mm
11:15 AM 49.2°F9.6°C 46.1°F7.8°C 89% 3.9 mph W6.3 kmh W 6.2 mph10.0 kmh 30.21 in1023.0 mb 0.00 in0.0 mm 0.00 in0.0 mm 0.05 in1.3 mm
11:20 AM 49.2°F9.6°C 46.1°F7.8°C 89% 3.7 mph SW6.0 kmh SW 6.2 mph10.0 kmh 30.21 in1023.0 mb 0.00 in0.0 mm 0.00 in0.0 mm 0.05 in1.3 mm
11:25 AM 49.4°F9.7°C 46.3°F7.9°C 89% 3.6 mph SW5.8 kmh SW 6.2 mph10.0 kmh 30.21 in1023.0 mb 0.00 in0.0 mm 0.00 in0.0 mm 0.05 in1.3 mm
11:30 AM 49.4°F9.7°C 46.3°F7.9°C 89% 3.4 mph WSW5.5 kmh WSW 5.1 mph8.2 kmh 30.21 in1023.0 mb 0.00 in0.0 mm 0.00 in0.0 mm 0.05 in1.3 mm
11:35 AM 49.5°F9.7°C 46.4°F8.0°C 89% 3.4 mph SW5.5 kmh SW 5.7 mph9.2 kmh 30.21 in1023.0 mb 0.00 in0.0 mm 0.00 in0.0 mm 0.05 in1.3 mm
11:40 AM 49.7°F9.8°C 46.6°F8.1°C 89% 3.7 mph WSW6.0 kmh WSW 5.7 mph9.2 kmh 30.21 in1023.0 mb 0.00 in0.0 mm 0.00 in0.0 mm 0.05 in1.3 mm
11:45 AM 49.7°F9.8°C 46.9°F8.3°C 90% 5.1 mph WSW8.2 kmh WSW 7.4 mph11.9 kmh 30.21 in1023.0 mb 0.00 in0.0 mm 0.00 in0.0 mm 0.05 in1.3 mm
11:50 AM 49.9°F9.9°C 47.1°F8.4°C 90% 6.2 mph WSW10.0 kmh WSW 8.6 mph13.8 kmh 30.21 in1023.0 mb 0.00 in0.0 mm 0.00 in0.0 mm 0.05 in1.3 mm
11:55 AM 49.9°F9.9°C 47.1°F8.4°C 90% 6.1 mph WSW9.8 kmh WSW 8.6 mph13.8 kmh 30.21 in1023.0 mb 0.00 in0.0 mm 0.00 in0.0 mm 0.05 in1.3 mm
12:00 PM 49.9°F9.9°C 47.1°F8.4°C 90% 5.9 mph WSW9.5 kmh WSW 8.3 mph13.4 kmh 30.21 in1023.0 mb 0.00 in0.0 mm 0.00 in0.0 mm 0.05 in1.3 mm
12:05 PM 49.9°F9.9°C 47.1°F8.4°C 90% 5.0 mph WSW8.0 kmh WSW 10.1 mph16.3 kmh 30.21 in1023.0 mb 0.00 in0.0 mm 0.00 in0.0 mm 0.05 in1.3 mm
12:10 PM 49.9°F9.9°C 47.1°F8.4°C 90% 5.8 mph WSW9.3 kmh WSW 10.1 mph16.3 kmh 30.21 in1023.0 mb 0.00 in0.0 mm 0.00 in0.0 mm 0.05 in1.3 mm
12:15 PM 49.9°F9.9°C 47.4°F8.6°C 91% 6.4 mph WSW10.3 kmh WSW 8.3 mph13.4 kmh 30.21 in1023.0 mb 0.00 in0.0 mm 0.00 in0.0 mm 0.05 in1.3 mm
12:20 PM 49.9°F9.9°C 47.4°F8.6°C 91% 6.1 mph WSW9.8 kmh WSW 9.8 mph15.8 kmh 30.21 in1023.0 mb 0.00 in0.0 mm 0.00 in0.0 mm 0.05 in1.3 mm
12:25 PM 49.9°F9.9°C 47.4°F8.6°C 91% 5.3 mph WSW8.5 kmh WSW 9.8 mph15.8 kmh 30.21 in1023.0 mb 0.00 in0.0 mm 0.00 in0.0 mm 0.05 in1.3 mm
12:30 PM 50.1°F10.1°C 47.6°F8.7°C 91% 5.6 mph WSW9.0 kmh WSW 11.3 mph18.2 kmh 30.21 in1023.0 mb 0.00 in0.0 mm 0.00 in0.0 mm 0.05 in1.3 mm
12:35 PM 50.1°F10.1°C 47.6°F8.7°C 91% 6.2 mph WSW10.0 kmh WSW 11.3 mph18.2 kmh 30.21 in1023.0 mb 0.00 in0.0 mm 0.00 in0.0 mm 0.05 in1.3 mm
12:40 PM 50.1°F10.1°C 47.6°F8.7°C 91% 5.7 mph WSW9.2 kmh WSW 8.6 mph13.8 kmh 30.21 in1023.0 mb 0.04 in1.0 mm 0.48 in12.2 mm 0.09 in2.3 mm
12:45 PM 50.1°F10.1°C 47.6°F8.7°C 91% 4.4 mph WSW7.1 kmh WSW 8.0 mph12.9 kmh 30.21 in1023.0 mb 0.04 in1.0 mm 0.00 in0.0 mm 0.09 in2.3 mm
12:50 PM 50.1°F10.1°C 47.9°F8.8°C 92% 4.2 mph WSW6.8 kmh WSW 6.5 mph10.5 kmh 30.21 in1023.0 mb 0.04 in1.0 mm 0.00 in0.0 mm 0.09 in2.3 mm
12:55 PM 50.1°F10.1°C 47.9°F8.8°C 92% 5.1 mph WSW8.2 kmh WSW 7.7 mph12.4 kmh 30.21 in1023.0 mb 0.04 in1.0 mm 0.00 in0.0 mm 0.09 in2.3 mm
01:00 PM 50.1°F10.1°C 47.9°F8.8°C 92% 5.2 mph WSW8.4 kmh WSW 7.7 mph12.4 kmh 30.21 in1023.0 mb 0.04 in1.0 mm 0.00 in0.0 mm 0.09 in2.3 mm
01:05 PM 50.3°F10.2°C 48.0°F8.9°C 92% 5.1 mph WSW8.2 kmh WSW 7.7 mph12.4 kmh 30.21 in1023.0 mb 0.04 in1.0 mm 0.00 in0.0 mm 0.09 in2.3 mm
01:10 PM 50.3°F10.2°C 48.0°F8.9°C 92% 4.7 mph WSW7.6 kmh WSW 7.1 mph11.4 kmh 30.21 in1023.0 mb 0.04 in1.0 mm 0.00 in0.0 mm 0.09 in2.3 mm
01:15 PM 50.3°F10.2°C 48.0°F8.9°C 92% 3.7 mph WSW6.0 kmh WSW 5.7 mph9.2 kmh 30.21 in1023.0 mb 0.04 in1.0 mm 0.00 in0.0 mm 0.09 in2.3 mm
01:20 PM 50.3°F10.2°C 48.0°F8.9°C 92% 4.0 mph SW6.4 kmh SW 5.7 mph9.2 kmh 30.21 in1023.0 mb 0.04 in1.0 mm 0.00 in0.0 mm 0.09 in2.3 mm
01:25 PM 50.3°F10.2°C 48.0°F8.9°C 92% 5.5 mph SW8.9 kmh SW 9.5 mph15.3 kmh 30.21 in1023.0 mb 0.04 in1.0 mm 0.00 in0.0 mm 0.09 in2.3 mm
01:30 PM 50.3°F10.2°C 48.0°F8.9°C 92% 6.3 mph WSW10.1 kmh WSW 9.5 mph15.3 kmh 30.21 in1023.0 mb 0.04 in1.0 mm 0.00 in0.0 mm 0.09 in2.3 mm
01:35 PM 50.3°F10.2°C 48.0°F8.9°C 92% 5.6 mph W9.0 kmh W 8.6 mph13.8 kmh 30.21 in1023.0 mb 0.04 in1.0 mm 0.00 in0.0 mm 0.09 in2.3 mm
01:40 PM 50.3°F10.2°C 48.0°F8.9°C 92% 4.6 mph WSW7.4 kmh WSW 7.4 mph11.9 kmh 30.21 in1023.0 mb 0.00 in0.0 mm 0.00 in0.0 mm 0.09 in2.3 mm
01:45 PM 50.5°F10.3°C 48.2°F9.0°C 92% 4.2 mph SW6.8 kmh SW 6.5 mph10.5 kmh 30.21 in1023.0 mb 0.00 in0.0 mm 0.00 in0.0 mm 0.09 in2.3 mm
01:50 PM 50.5°F10.3°C 48.2°F9.0°C 92% 4.8 mph WSW7.7 kmh WSW 8.0 mph12.9 kmh 30.18 in1022.0 mb 0.00 in0.0 mm 0.00 in0.0 mm 0.09 in2.3 mm
01:55 PM 50.5°F10.3°C 48.5°F9.2°C 93% 5.4 mph WSW8.7 kmh WSW 8.0 mph12.9 kmh 30.18 in1022.0 mb 0.00 in0.0 mm 0.00 in0.0 mm 0.09 in2.3 mm
02:00 PM 50.5°F10.3°C 48.5°F9.2°C 93% 5.5 mph W8.9 kmh W 7.1 mph11.4 kmh 30.18 in1022.0 mb 0.00 in0.0 mm 0.00 in0.0 mm 0.09 in2.3 mm
02:05 PM 50.5°F10.3°C 48.5°F9.2°C 93% 5.2 mph W8.4 kmh W 7.1 mph11.4 kmh 30.18 in1022.0 mb 0.00 in0.0 mm 0.00 in0.0 mm 0.09 in2.3 mm
02:10 PM 50.5°F10.3°C 48.5°F9.2°C 93% 4.2 mph WSW6.8 kmh WSW 6.5 mph10.5 kmh 30.18 in1022.0 mb 0.00 in0.0 mm 0.00 in0.0 mm 0.09 in2.3 mm
02:15 PM 50.6°F10.3°C 48.7°F9.3°C 93% 4.0 mph WSW6.4 kmh WSW 7.4 mph11.9 kmh 30.18 in1022.0 mb 0.00 in0.0 mm 0.00 in0.0 mm 0.09 in2.3 mm
02:20 PM 50.6°F10.3°C 48.7°F9.3°C 93% 4.0 mph WSW6.4 kmh WSW 7.4 mph11.9 kmh 30.21 in1023.0 mb 0.00 in0.0 mm 0.00 in0.0 mm 0.09 in2.3 mm
02:25 PM 50.6°F10.3°C 48.7°F9.3°C 93% 3.7 mph WSW6.0 kmh WSW 5.4 mph8.7 kmh 30.21 in1023.0 mb 0.04 in1.0 mm 0.48 in12.2 mm 0.13 in3.3 mm
02:30 PM 50.8°F10.4°C 48.9°F9.4°C 93% 3.5 mph SW5.6 kmh SW 5.7 mph9.2 kmh 30.21 in1023.0 mb 0.04 in1.0 mm 0.00 in0.0 mm 0.13 in3.3 mm
02:35 PM 50.8°F10.4°C 48.9°F9.4°C 93% 3.1 mph WSW5.0 kmh WSW 5.7 mph9.2 kmh 30.18 in1022.0 mb 0.04 in1.0 mm 0.00 in0.0 mm 0.13 in3.3 mm
02:40 PM 50.8°F10.4°C 48.9°F9.4°C 93% 3.9 mph WSW6.3 kmh WSW 6.5 mph10.5 kmh 30.18 in1022.0 mb 0.04 in1.0 mm 0.00 in0.0 mm 0.13 in3.3 mm
02:45 PM 51.0°F10.6°C 49.0°F9.4°C 93% 4.2 mph WSW6.8 kmh WSW 7.1 mph11.4 kmh 30.18 in1022.0 mb 0.04 in1.0 mm 0.00 in0.0 mm 0.13 in3.3 mm
02:50 PM 51.0°F10.6°C 49.0°F9.4°C 93% 4.1 mph WSW6.6 kmh WSW 7.1 mph11.4 kmh 30.18 in1022.0 mb 0.04 in1.0 mm 0.00 in0.0 mm 0.13 in3.3 mm
02:55 PM 51.2°F10.7°C 49.2°F9.6°C 93% 3.8 mph WSW6.1 kmh WSW 5.7 mph9.2 kmh 30.18 in1022.0 mb 0.04 in1.0 mm 0.00 in0.0 mm 0.13 in3.3 mm
03:00 PM 51.2°F10.7°C 49.2°F9.6°C 93% 3.3 mph WSW5.3 kmh WSW 5.7 mph9.2 kmh 30.18 in1022.0 mb 0.04 in1.0 mm 0.00 in0.0 mm 0.13 in3.3 mm
03:05 PM 51.2°F10.7°C 49.2°F9.6°C 93% 2.9 mph WSW4.7 kmh WSW 5.1 mph8.2 kmh 30.18 in1022.0 mb 0.04 in1.0 mm 0.00 in0.0 mm 0.13 in3.3 mm
03:10 PM 51.2°F10.7°C 49.2°F9.6°C 93% 3.6 mph W5.8 kmh W 5.4 mph8.7 kmh 30.18 in1022.0 mb 0.04 in1.0 mm 0.00 in0.0 mm 0.13 in3.3 mm
03:15 PM 51.3°F10.7°C 49.4°F9.7°C 93% 4.1 mph W6.6 kmh W 5.4 mph8.7 kmh 30.18 in1022.0 mb 0.04 in1.0 mm 0.00 in0.0 mm 0.13 in3.3 mm
03:20 PM 51.3°F10.7°C 49.4°F9.7°C 93% 4.0 mph W6.4 kmh W 5.4 mph8.7 kmh 30.18 in1022.0 mb 0.04 in1.0 mm 0.00 in0.0 mm 0.13 in3.3 mm
03:25 PM 51.3°F10.7°C 49.4°F9.7°C 93% 4.1 mph WSW6.6 kmh WSW 5.4 mph8.7 kmh 30.18 in1022.0 mb 0.00 in0.0 mm 0.00 in0.0 mm 0.13 in3.3 mm
03:30 PM 51.3°F10.7°C 49.4°F9.7°C 93% 4.8 mph WSW7.7 kmh WSW 7.1 mph11.4 kmh 30.18 in1022.0 mb 0.00 in0.0 mm 0.00 in0.0 mm 0.13 in3.3 mm
03:35 PM 51.3°F10.7°C 49.4°F9.7°C 93% 4.2 mph WSW6.8 kmh WSW 7.1 mph11.4 kmh 30.18 in1022.0 mb 0.00 in0.0 mm 0.00 in0.0 mm 0.13 in3.3 mm
03:40 PM 51.3°F10.7°C 49.4°F9.7°C 93% 3.2 mph WSW5.1 kmh WSW 4.8 mph7.7 kmh 30.18 in1022.0 mb 0.00 in0.0 mm 0.00 in0.0 mm 0.13 in3.3 mm
03:45 PM 51.5°F10.8°C 49.6°F9.8°C 93% 2.9 mph WSW4.7 kmh WSW 4.2 mph6.8 kmh 30.18 in1022.0 mb 0.00 in0.0 mm 0.00 in0.0 mm 0.13 in3.3 mm
03:50 PM 51.5°F10.8°C 49.6°F9.8°C 93% 2.5 mph WSW4.0 kmh WSW 4.2 mph6.8 kmh 30.18 in1022.0 mb 0.00 in0.0 mm 0.00 in0.0 mm 0.13 in3.3 mm
03:55 PM 51.5°F10.8°C 49.6°F9.8°C 93% 2.2 mph WSW3.5 kmh WSW 4.2 mph6.8 kmh 30.18 in1022.0 mb 0.00 in0.0 mm 0.00 in0.0 mm 0.13 in3.3 mm
04:00 PM 51.7°F10.9°C 49.8°F9.9°C 93% 3.6 mph WSW5.8 kmh WSW 5.7 mph9.2 kmh 30.18 in1022.0 mb 0.00 in0.0 mm 0.00 in0.0 mm 0.13 in3.3 mm
04:05 PM 51.7°F10.9°C 49.8°F9.9°C 93% 4.8 mph WSW7.7 kmh WSW 5.7 mph9.2 kmh 30.18 in1022.0 mb 0.00 in0.0 mm 0.00 in0.0 mm 0.13 in3.3 mm
04:10 PM 51.7°F10.9°C 49.8°F9.9°C 93% 4.3 mph WSW6.9 kmh WSW 5.7 mph9.2 kmh 30.18 in1022.0 mb 0.00 in0.0 mm 0.00 in0.0 mm 0.13 in3.3 mm
04:20 PM 51.7°F10.9°C 49.8°F9.9°C 93% 2.9 mph SW4.7 kmh SW 4.5 mph7.2 kmh 30.21 in1023.0 mb 0.00 in0.0 mm 0.00 in0.0 mm 0.13 in3.3 mm
04:25 PM 51.7°F10.9°C 49.8°F9.9°C 93% 2.2 mph SW3.5 kmh SW 4.5 mph7.2 kmh 30.21 in1023.0 mb 0.00 in0.0 mm 0.00 in0.0 mm 0.13 in3.3 mm
04:30 PM 51.5°F10.8°C 49.6°F9.8°C 93% 1.5 mph SSW2.4 kmh SSW 3.6 mph5.8 kmh 30.21 in1023.0 mb 0.00 in0.0 mm 0.00 in0.0 mm 0.13 in3.3 mm
04:35 PM 51.5°F10.8°C 49.6°F9.8°C 93% 2.0 mph SSW3.2 kmh SSW 4.5 mph7.2 kmh 30.21 in1023.0 mb 0.00 in0.0 mm 0.00 in0.0 mm 0.13 in3.3 mm
04:40 PM 51.3°F10.7°C 49.4°F9.7°C 93% 2.4 mph SW3.9 kmh SW 4.8 mph7.7 kmh 30.21 in1023.0 mb 0.00 in0.0 mm 0.00 in0.0 mm 0.13 in3.3 mm
04:45 PM 51.3°F10.7°C 49.4°F9.7°C 93% 2.2 mph SW3.5 kmh SW 4.8 mph7.7 kmh 30.21 in1023.0 mb 0.00 in0.0 mm 0.00 in0.0 mm 0.13 in3.3 mm
04:50 PM 51.3°F10.7°C 49.4°F9.7°C 93% 2.2 mph WSW3.5 kmh WSW 4.2 mph6.8 kmh 30.21 in1023.0 mb 0.00 in0.0 mm 0.00 in0.0 mm 0.13 in3.3 mm
04:55 PM 51.3°F10.7°C 49.4°F9.7°C 93% 2.6 mph WSW4.2 kmh WSW 4.2 mph6.8 kmh 30.21 in1023.0 mb 0.00 in0.0 mm 0.00 in0.0 mm 0.13 in3.3 mm
05:00 PM 51.2°F10.7°C 49.2°F9.6°C 93% 2.4 mph SW3.9 kmh SW 4.5 mph7.2 kmh 30.21 in1023.0 mb 0.00 in0.0 mm 0.00 in0.0 mm 0.13 in3.3 mm
05:05 PM 51.2°F10.7°C 49.2°F9.6°C 93% 2.1 mph SSW3.4 kmh SSW 6.2 mph10.0 kmh 30.21 in1023.0 mb 0.00 in0.0 mm 0.00 in0.0 mm 0.13 in3.3 mm
05:10 PM 51.2°F10.7°C 49.2°F9.6°C 93% 1.9 mph SW3.1 kmh SW 6.2 mph10.0 kmh 30.21 in1023.0 mb 0.00 in0.0 mm 0.00 in0.0 mm 0.13 in3.3 mm
05:15 PM 51.0°F10.6°C 49.0°F9.4°C 93% 2.0 mph WSW3.2 kmh WSW 6.2 mph10.0 kmh 30.21 in1023.0 mb 0.00 in0.0 mm 0.00 in0.0 mm 0.13 in3.3 mm
05:20 PM 51.0°F10.6°C 48.7°F9.3°C 92% 1.8 mph SW2.9 kmh SW 3.9 mph6.3 kmh 30.21 in1023.0 mb 0.00 in0.0 mm 0.00 in0.0 mm 0.13 in3.3 mm
05:25 PM 51.0°F10.6°C 48.7°F9.3°C 92% 2.5 mph SW4.0 kmh SW 5.7 mph9.2 kmh 30.21 in1023.0 mb 0.00 in0.0 mm 0.00 in0.0 mm 0.13 in3.3 mm
05:30 PM 51.0°F10.6°C 48.7°F9.3°C 92% 2.0 mph SW3.2 kmh SW 5.7 mph9.2 kmh 30.21 in1023.0 mb 0.00 in0.0 mm 0.00 in0.0 mm 0.13 in3.3 mm
05:35 PM 50.8°F10.4°C 48.6°F9.2°C 92% 1.5 mph SW2.4 kmh SW 2.7 mph4.3 kmh 30.21 in1023.0 mb 0.00 in0.0 mm 0.00 in0.0 mm 0.13 in3.3 mm
05:40 PM 50.8°F10.4°C 48.6°F9.2°C 92% 1.7 mph SW2.7 kmh SW 5.1 mph8.2 kmh 30.21 in1023.0 mb 0.00 in0.0 mm 0.00 in0.0 mm 0.13 in3.3 mm
05:45 PM 50.8°F10.4°C 48.6°F9.2°C 92% 2.3 mph SW3.7 kmh SW 5.1 mph8.2 kmh 30.21 in1023.0 mb 0.00 in0.0 mm 0.00 in0.0 mm 0.13 in3.3 mm
05:50 PM 50.8°F10.4°C 48.6°F9.2°C 92% 3.2 mph SW5.1 kmh SW 5.4 mph8.7 kmh 30.21 in1023.0 mb 0.00 in0.0 mm 0.00 in0.0 mm 0.13 in3.3 mm
05:55 PM 50.6°F10.3°C 48.4°F9.1°C 92% 3.1 mph WSW5.0 kmh WSW 5.4 mph8.7 kmh 30.21 in1023.0 mb 0.00 in0.0 mm 0.00 in0.0 mm 0.13 in3.3 mm
06:00 PM 50.6°F10.3°C 48.4°F9.1°C 92% 3.8 mph WSW6.1 kmh WSW 5.1 mph8.2 kmh 30.21 in1023.0 mb 0.00 in0.0 mm 0.00 in0.0 mm 0.13 in3.3 mm
06:05 PM 50.5°F10.3°C 48.5°F9.2°C 93% 4.4 mph WSW7.1 kmh WSW 5.1 mph8.2 kmh 30.21 in1023.0 mb 0.00 in0.0 mm 0.00 in0.0 mm 0.13 in3.3 mm
06:10 PM 50.5°F10.3°C 48.2°F9.0°C 92% 4.6 mph WSW7.4 kmh WSW 5.4 mph8.7 kmh 30.21 in1023.0 mb 0.00 in0.0 mm 0.00 in0.0 mm 0.13 in3.3 mm
06:15 PM 50.5°F10.3°C 48.2°F9.0°C 92% 4.3 mph WSW6.9 kmh WSW 5.4 mph8.7 kmh 30.21 in1023.0 mb 0.00 in0.0 mm 0.00 in0.0 mm 0.13 in3.3 mm
06:20 PM 50.5°F10.3°C 48.2°F9.0°C 92% 3.5 mph WSW5.6 kmh WSW 5.1 mph8.2 kmh 30.21 in1023.0 mb 0.00 in0.0 mm 0.00 in0.0 mm 0.13 in3.3 mm
06:25 PM 50.5°F10.3°C 48.2°F9.0°C 92% 2.9 mph WSW4.7 kmh WSW 3.9 mph6.3 kmh 30.21 in1023.0 mb 0.00 in0.0 mm 0.00 in0.0 mm 0.13 in3.3 mm
06:30 PM 50.5°F10.3°C 48.5°F9.2°C 93% 2.9 mph WSW4.7 kmh WSW 4.5 mph7.2 kmh 30.21 in1023.0 mb 0.00 in0.0 mm 0.00 in0.0 mm 0.13 in3.3 mm
06:35 PM 50.5°F10.3°C 48.5°F9.2°C 93% 2.1 mph SW3.4 kmh SW 4.5 mph7.2 kmh 30.21 in1023.0 mb 0.00 in0.0 mm 0.00 in0.0 mm 0.13 in3.3 mm
06:40 PM 50.5°F10.3°C 48.2°F9.0°C 92% 1.5 mph SSW2.4 kmh SSW 3.0 mph4.8 kmh 30.21 in1023.0 mb 0.00 in0.0 mm 0.00 in0.0 mm 0.13 in3.3 mm
06:45 PM 50.5°F10.3°C 48.2°F9.0°C 92% 2.3 mph S3.7 kmh S 4.5 mph7.2 kmh 30.21 in1023.0 mb 0.00 in0.0 mm 0.00 in0.0 mm 0.13 in3.3 mm
06:50 PM 50.5°F10.3°C 48.2°F9.0°C 92% 2.5 mph SSW4.0 kmh SSW 4.5 mph7.2 kmh 30.21 in1023.0 mb 0.00 in0.0 mm 0.00 in0.0 mm 0.13 in3.3 mm
06:55 PM 50.5°F10.3°C 48.2°F9.0°C 92% 3.4 mph SW5.5 kmh SW 6.2 mph10.0 kmh 30.21 in1023.0 mb 0.00 in0.0 mm 0.00 in0.0 mm 0.13 in3.3 mm
07:00 PM 50.5°F10.3°C 48.2°F9.0°C 92% 2.9 mph SSW4.7 kmh SSW 6.2 mph10.0 kmh 30.21 in1023.0 mb 0.00 in0.0 mm 0.00 in0.0 mm 0.13 in3.3 mm
07:05 PM 50.5°F10.3°C 48.2°F9.0°C 92% 2.6 mph SW4.2 kmh SW 6.2 mph10.0 kmh 30.21 in1023.0 mb 0.00 in0.0 mm 0.00 in0.0 mm 0.13 in3.3 mm
07:10 PM 50.5°F10.3°C 48.2°F9.0°C 92% 3.3 mph SW5.3 kmh SW 5.1 mph8.2 kmh 30.21 in1023.0 mb 0.00 in0.0 mm 0.00 in0.0 mm 0.13 in3.3 mm
07:20 PM 50.5°F10.3°C 48.2°F9.0°C 92% 3.8 mph SSW6.1 kmh SSW 6.2 mph10.0 kmh 30.21 in1023.0 mb 0.00 in0.0 mm 0.00 in0.0 mm 0.13 in3.3 mm
07:25 PM 50.5°F10.3°C 48.2°F9.0°C 92% 3.7 mph SSW6.0 kmh SSW 6.2 mph10.0 kmh 30.21 in1023.0 mb 0.00 in0.0 mm 0.00 in0.0 mm 0.13 in3.3 mm
07:30 PM 50.5°F10.3°C 48.2°F9.0°C 92% 3.0 mph SSW4.8 kmh SSW 4.8 mph7.7 kmh 30.21 in1023.0 mb 0.00 in0.0 mm 0.00 in0.0 mm 0.13 in3.3 mm
07:35 PM 50.3°F10.2°C 48.0°F8.9°C 92% 2.5 mph SW4.0 kmh SW 4.8 mph7.7 kmh 30.24 in1024.0 mb 0.00 in0.0 mm 0.00 in0.0 mm 0.13 in3.3 mm
07:40 PM 50.3°F10.2°C 48.0°F8.9°C 92% 2.7 mph SW4.3 kmh SW 4.8 mph7.7 kmh 30.24 in1024.0 mb 0.00 in0.0 mm 0.00 in0.0 mm 0.13 in3.3 mm
07:45 PM 50.3°F10.2°C 48.0°F8.9°C 92% 2.2 mph SW3.5 kmh SW 4.8 mph7.7 kmh 30.24 in1024.0 mb 0.00 in0.0 mm 0.00 in0.0 mm 0.13 in3.3 mm
07:50 PM 50.3°F10.2°C 48.0°F8.9°C 92% 1.5 mph SW2.4 kmh SW 3.3 mph5.3 kmh 30.21 in1023.0 mb 0.00 in0.0 mm 0.00 in0.0 mm 0.13 in3.3 mm
07:55 PM 50.3°F10.2°C 48.0°F8.9°C 92% 3.3 mph SW5.3 kmh SW 6.2 mph10.0 kmh 30.21 in1023.0 mb 0.00 in0.0 mm 0.00 in0.0 mm 0.13 in3.3 mm
08:00 PM 50.3°F10.2°C 48.0°F8.9°C 92% 4.3 mph SW6.9 kmh SW 7.7 mph12.4 kmh 30.21 in1023.0 mb 0.00 in0.0 mm 0.00 in0.0 mm 0.13 in3.3 mm
08:05 PM 50.3°F10.2°C 48.0°F8.9°C 92% 4.0 mph SW6.4 kmh SW 7.7 mph12.4 kmh 30.21 in1023.0 mb 0.00 in0.0 mm 0.00 in0.0 mm 0.13 in3.3 mm
08:10 PM 50.3°F10.2°C 48.0°F8.9°C 92% 3.7 mph SW6.0 kmh SW 7.7 mph12.4 kmh 30.21 in1023.0 mb 0.00 in0.0 mm 0.00 in0.0 mm 0.13 in3.3 mm
08:15 PM 50.3°F10.2°C 48.0°F8.9°C 92% 3.5 mph SW5.6 kmh SW 5.1 mph8.2 kmh 30.21 in1023.0 mb 0.00 in0.0 mm 0.00 in0.0 mm 0.13 in3.3 mm
08:20 PM 50.3°F10.2°C 48.0°F8.9°C 92% 3.1 mph SSW5.0 kmh SSW 4.2 mph6.8 kmh 30.21 in1023.0 mb 0.00 in0.0 mm 0.00 in0.0 mm 0.13 in3.3 mm
08:25 PM 50.1°F10.1°C 47.9°F8.8°C 92% 2.9 mph SSW4.7 kmh SSW 5.1 mph8.2 kmh 30.21 in1023.0 mb 0.00 in0.0 mm 0.00 in0.0 mm 0.13 in3.3 mm
08:30 PM 50.1°F10.1°C 47.9°F8.8°C 92% 2.5 mph SSW4.0 kmh SSW 5.1 mph8.2 kmh 30.21 in1023.0 mb 0.00 in0.0 mm 0.00 in0.0 mm 0.13 in3.3 mm
08:35 PM 50.1°F10.1°C 47.9°F8.8°C 92% 2.4 mph SSW3.9 kmh SSW 4.2 mph6.8 kmh 30.21 in1023.0 mb 0.00 in0.0 mm 0.00 in0.0 mm 0.13 in3.3 mm
08:40 PM 49.9°F9.9°C 47.7°F8.7°C 92% 2.9 mph SW4.7 kmh SW 4.8 mph7.7 kmh 30.21 in1023.0 mb 0.00 in0.0 mm 0.00 in0.0 mm 0.13 in3.3 mm
08:45 PM 49.9°F9.9°C 47.7°F8.7°C 92% 2.6 mph SW4.2 kmh SW 5.1 mph8.2 kmh 30.21 in1023.0 mb 0.00 in0.0 mm 0.00 in0.0 mm 0.13 in3.3 mm
08:50 PM 49.9°F9.9°C 47.7°F8.7°C 92% 2.2 mph SW3.5 kmh SW 5.1 mph8.2 kmh 30.21 in1023.0 mb 0.00 in0.0 mm 0.00 in0.0 mm 0.13 in3.3 mm
08:55 PM 49.9°F9.9°C 47.7°F8.7°C 92% 2.3 mph SW3.7 kmh SW 5.1 mph8.2 kmh 30.21 in1023.0 mb 0.00 in0.0 mm 0.00 in0.0 mm 0.13 in3.3 mm
09:00 PM 49.9°F9.9°C 47.7°F8.7°C 92% 2.9 mph SSW4.7 kmh SSW 5.4 mph8.7 kmh 30.21 in1023.0 mb 0.00 in0.0 mm 0.00 in0.0 mm 0.13 in3.3 mm
09:05 PM 50.1°F10.1°C 47.9°F8.8°C 92% 3.1 mph SSW5.0 kmh SSW 5.4 mph8.7 kmh 30.21 in1023.0 mb 0.00 in0.0 mm 0.00 in0.0 mm 0.13 in3.3 mm
09:10 PM 50.1°F10.1°C 47.9°F8.8°C 92% 2.7 mph SSW4.3 kmh SSW 5.1 mph8.2 kmh 30.21 in1023.0 mb 0.00 in0.0 mm 0.00 in0.0 mm 0.13 in3.3 mm
09:15 PM 50.1°F10.1°C 47.9°F8.8°C 92% 2.5 mph S4.0 kmh S 5.1 mph8.2 kmh 30.21 in1023.0 mb 0.00 in0.0 mm 0.00 in0.0 mm 0.13 in3.3 mm
09:20 PM 50.1°F10.1°C 47.9°F8.8°C 92% 3.6 mph S5.8 kmh S 5.1 mph8.2 kmh 30.21 in1023.0 mb 0.00 in0.0 mm 0.00 in0.0 mm 0.13 in3.3 mm
09:25 PM 50.1°F10.1°C 47.9°F8.8°C 92% 3.4 mph SSW5.5 kmh SSW 4.8 mph7.7 kmh 30.21 in1023.0 mb 0.00 in0.0 mm 0.00 in0.0 mm 0.13 in3.3 mm
09:30 PM 49.9°F9.9°C 47.7°F8.7°C 92% 2.3 mph SSW3.7 kmh SSW 4.2 mph6.8 kmh 30.21 in1023.0 mb 0.00 in0.0 mm 0.00 in0.0 mm 0.13 in3.3 mm
09:35 PM 49.9°F9.9°C 47.7°F8.7°C 92% 1.9 mph SSW3.1 kmh SSW 4.2 mph6.8 kmh 30.21 in1023.0 mb 0.00 in0.0 mm 0.00 in0.0 mm 0.13 in3.3 mm
09:40 PM 49.9°F9.9°C 47.7°F8.7°C 92% 1.6 mph SSW2.6 kmh SSW 4.2 mph6.8 kmh 30.21 in1023.0 mb 0.00 in0.0 mm 0.00 in0.0 mm 0.13 in3.3 mm
09:45 PM 49.9°F9.9°C 47.7°F8.7°C 92% 1.1 mph SSW1.8 kmh SSW 4.2 mph6.8 kmh 30.21 in1023.0 mb 0.00 in0.0 mm 0.00 in0.0 mm 0.13 in3.3 mm
09:50 PM 49.9°F9.9°C 47.7°F8.7°C 92% 0.8 mph SW1.3 kmh SW 5.1 mph8.2 kmh 30.21 in1023.0 mb 0.00 in0.0 mm 0.00 in0.0 mm 0.13 in3.3 mm
09:55 PM 49.9°F9.9°C 47.7°F8.7°C 92% 1.2 mph SW1.9 kmh SW 5.1 mph8.2 kmh 30.21 in1023.0 mb 0.00 in0.0 mm 0.00 in0.0 mm 0.13 in3.3 mm
10:00 PM 49.9°F9.9°C 47.7°F8.7°C 92% 1.6 mph SW2.6 kmh SW 4.2 mph6.8 kmh 30.21 in1023.0 mb 0.00 in0.0 mm 0.00 in0.0 mm 0.13 in3.3 mm
10:05 PM 50.1°F10.1°C 47.9°F8.8°C 92% 1.3 mph SW2.1 kmh SW 4.2 mph6.8 kmh 30.21 in1023.0 mb 0.00 in0.0 mm 0.00 in0.0 mm 0.13 in3.3 mm
10:10 PM 50.1°F10.1°C 47.9°F8.8°C 92% 1.8 mph SSW2.9 kmh SSW 5.1 mph8.2 kmh 30.21 in1023.0 mb 0.00 in0.0 mm 0.00 in0.0 mm 0.13 in3.3 mm
10:15 PM 50.1°F10.1°C 47.9°F8.8°C 92% 2.8 mph SW4.5 kmh SW 5.1 mph8.2 kmh 30.21 in1023.0 mb 0.00 in0.0 mm 0.00 in0.0 mm 0.13 in3.3 mm
10:20 PM 50.1°F10.1°C 47.9°F8.8°C 92% 2.8 mph SW4.5 kmh SW 5.1 mph8.2 kmh 30.21 in1023.0 mb 0.00 in0.0 mm 0.00 in0.0 mm 0.13 in3.3 mm
10:25 PM 50.1°F10.1°C 47.9°F8.8°C 92% 2.3 mph SW3.7 kmh SW 4.2 mph6.8 kmh 30.21 in1023.0 mb 0.00 in0.0 mm 0.00 in0.0 mm 0.13 in3.3 mm
10:30 PM 50.1°F10.1°C 47.9°F8.8°C 92% 3.1 mph SW5.0 kmh SW 5.4 mph8.7 kmh 30.21 in1023.0 mb 0.00 in0.0 mm 0.00 in0.0 mm 0.13 in3.3 mm
10:35 PM 50.1°F10.1°C 47.9°F8.8°C 92% 3.8 mph SSW6.1 kmh SSW 6.5 mph10.5 kmh 30.21 in1023.0 mb 0.00 in0.0 mm 0.00 in0.0 mm 0.13 in3.3 mm
10:40 PM 50.1°F10.1°C 47.9°F8.8°C 92% 3.5 mph SSW5.6 kmh SSW 6.5 mph10.5 kmh 30.21 in1023.0 mb 0.00 in0.0 mm 0.00 in0.0 mm 0.13 in3.3 mm
10:45 PM 50.1°F10.1°C 47.9°F8.8°C 92% 2.5 mph SW4.0 kmh SW 3.9 mph6.3 kmh 30.21 in1023.0 mb 0.00 in0.0 mm 0.00 in0.0 mm 0.13 in3.3 mm
10:50 PM 50.1°F10.1°C 47.9°F8.8°C 92% 2.4 mph WSW3.9 kmh WSW 3.6 mph5.8 kmh 30.21 in1023.0 mb 0.00 in0.0 mm 0.00 in0.0 mm 0.13 in3.3 mm
11:00 PM 50.1°F10.1°C 47.9°F8.8°C 92% 1.7 mph WSW2.7 kmh WSW 4.2 mph6.8 kmh 30.21 in1023.0 mb 0.00 in0.0 mm 0.00 in0.0 mm 0.13 in3.3 mm
11:05 PM 50.1°F10.1°C 47.9°F8.8°C 92% 1.5 mph WSW2.4 kmh WSW 4.2 mph6.8 kmh 30.21 in1023.0 mb 0.00 in0.0 mm 0.00 in0.0 mm 0.13 in3.3 mm
11:10 PM 50.1°F10.1°C 47.9°F8.8°C 92% 1.9 mph SW3.1 kmh SW 5.7 mph9.2 kmh 30.21 in1023.0 mb 0.00 in0.0 mm 0.00 in0.0 mm 0.13 in3.3 mm
11:15 PM 50.3°F10.2°C 48.0°F8.9°C 92% 3.6 mph SW5.8 kmh SW 7.1 mph11.4 kmh 30.21 in1023.0 mb 0.00 in0.0 mm 0.00 in0.0 mm 0.13 in3.3 mm
11:20 PM 50.3°F10.2°C 48.3°F9.1°C 93% 3.5 mph SW5.6 kmh SW 7.1 mph11.4 kmh 30.21 in1023.0 mb 0.00 in0.0 mm 0.00 in0.0 mm 0.13 in3.3 mm
11:25 PM 50.3°F10.2°C 48.3°F9.1°C 93% 1.7 mph SW2.7 kmh SW 4.8 mph7.7 kmh 30.21 in1023.0 mb 0.00 in0.0 mm 0.00 in0.0 mm 0.13 in3.3 mm
11:30 PM 50.1°F10.1°C 48.1°F8.9°C 93% 0.8 mph S1.3 kmh S 3.0 mph4.8 kmh 30.21 in1023.0 mb 0.00 in0.0 mm 0.00 in0.0 mm 0.13 in3.3 mm
11:35 PM 50.1°F10.1°C 48.1°F8.9°C 93% 0.6 mph SW1.0 kmh SW 2.7 mph4.3 kmh 30.21 in1023.0 mb 0.00 in0.0 mm 0.00 in0.0 mm 0.13 in3.3 mm
11:40 PM 50.1°F10.1°C 48.1°F8.9°C 93% 0.5 mph SSW0.8 kmh SSW 1.5 mph2.4 kmh 30.21 in1023.0 mb 0.00 in0.0 mm 0.00 in0.0 mm 0.13 in3.3 mm
11:45 PM 50.1°F10.1°C 48.1°F8.9°C 93% 0.2 mph SW0.3 kmh SW 1.0 mph1.6 kmh 30.21 in1023.0 mb 0.00 in0.0 mm 0.00 in0.0 mm 0.13 in3.3 mm
11:50 PM 50.1°F10.1°C 48.1°F8.9°C 93% Calm Calm -- 30.21 in1023.0 mb 0.00 in0.0 mm 0.00 in0.0 mm 0.13 in3.3 mm
11:55 PM 50.1°F10.1°C 48.1°F8.9°C 93% Calm Calm -- 30.21 in1023.0 mb 0.00 in0.0 mm 0.00 in0.0 mm 0.13 in3.3 mm